Crocker, Missouri
Current Conditions -  °F | °C
As of 8:58 PM on Thursday 27 Nov 2014 (Local Time) from KTBN Reporting Station
Overcast Overcast  
Wind Chill: 28°   Ceiling: 15000
Heat Index: 32°   Visibility: 10mi
Dew Point: 24°   Wind: 5mph
Humidity: 73%   Direction: 140°SE
Pressure: 30.37"   Gusts: NA
Location:  37.95°N, 92.26°W
Report Text: KTBN 280258Z AUTO 14004KT 10SM OVC150 00/M04 A3037 RMK AO2 SLP300 T00021042 57013 $
Loading
Personal Weather Stations






























Interactive Weather Map New forecast layout! Learn more

10-Day Weather Forecast

Advertisements
Track Severe Weather on mobile